sensor_id;sensor_type;location;lat;lon;timestamp;P1;durP1;ratioP1;P2;durP2;ratioP2
73331;SDS011;61560;33.718;73.040;2023-03-16T00:02:04;728.92;;;245.45;;
73331;SDS011;61560;33.718;73.040;2023-03-16T00:04:33;734.75;;;246.13;;
73331;SDS011;61560;33.718;73.040;2023-03-16T00:07:05;737.67;;;247.70;;
73331;SDS011;61560;33.718;73.040;2023-03-16T00:09:34;752.88;;;252.75;;
73331;SDS011;61560;33.718;73.040;2023-03-16T00:12:06;755.90;;;251.97;;
73331;SDS011;61560;33.718;73.040;2023-03-16T00:14:47;762.25;;;255.93;;
73331;SDS011;61560;33.718;73.040;2023-03-16T00:17:15;760.30;;;255.27;;
73331;SDS011;61560;33.718;73.040;2023-03-16T00:19:45;762.00;;;254.40;;
73331;SDS011;61560;33.718;73.040;2023-03-16T00:22:22;758.92;;;255.02;;
73331;SDS011;61560;33.718;73.040;2023-03-16T00:24:51;746.58;;;252.82;;
73331;SDS011;61560;33.718;73.040;2023-03-16T00:27:17;749.55;;;253.20;;
73331;SDS011;61560;33.718;73.040;2023-03-16T00:29:45;754.53;;;253.82;;
73331;SDS011;61560;33.718;73.040;2023-03-16T00:32:16;745.80;;;253.35;;
73331;SDS011;61560;33.718;73.040;2023-03-16T00:34:44;743.27;;;250.17;;
73331;SDS011;61560;33.718;73.040;2023-03-16T00:37:13;740.97;;;251.20;;
73331;SDS011;61560;33.718;73.040;2023-03-16T00:39:42;749.85;;;249.93;;
73331;SDS011;61560;33.718;73.040;2023-03-16T00:42:12;754.63;;;254.07;;
73331;SDS011;61560;33.718;73.040;2023-03-16T00:44:40;738.55;;;248.35;;
73331;SDS011;61560;33.718;73.040;2023-03-16T00:47:08;743.63;;;249.50;;
73331;SDS011;61560;33.718;73.040;2023-03-16T00:49:40;744.20;;;249.73;;
73331;SDS011;61560;33.718;73.040;2023-03-16T00:52:09;751.28;;;249.90;;
73331;SDS011;61560;33.718;73.040;2023-03-16T00:54:44;748.10;;;251.15;;
73331;SDS011;61560;33.718;73.040;2023-03-16T00:57:13;748.05;;;250.00;;
73331;SDS011;61560;33.718;73.040;2023-03-16T00:59:47;747.83;;;251.05;;
73331;SDS011;61560;33.718;73.040;2023-03-16T01:02:14;737.28;;;247.75;;
73331;SDS011;61560;33.718;73.040;2023-03-16T01:04:44;736.50;;;247.20;;
73331;SDS011;61560;33.718;73.040;2023-03-16T01:07:12;733.55;;;246.68;;
73331;SDS011;61560;33.718;73.040;2023-03-16T01:09:42;733.05;;;247.07;;
73331;SDS011;61560;33.718;73.040;2023-03-16T01:12:11;738.88;;;249.35;;
73331;SDS011;61560;33.718;73.040;2023-03-16T01:14:43;735.40;;;247.23;;
73331;SDS011;61560;33.718;73.040;2023-03-16T01:17:14;730.97;;;247.23;;
73331;SDS011;61560;33.718;73.040;2023-03-16T01:19:42;724.40;;;244.05;;
73331;SDS011;61560;33.718;73.040;2023-03-16T01:22:10;719.20;;;243.20;;
73331;SDS011;61560;33.718;73.040;2023-03-16T01:24:37;722.13;;;244.73;;
73331;SDS011;61560;33.718;73.040;2023-03-16T01:27:06;725.70;;;244.25;;
73331;SDS011;61560;33.718;73.040;2023-03-16T01:29:34;724.63;;;244.18;;
73331;SDS011;61560;33.718;73.040;2023-03-16T01:32:02;727.22;;;245.77;;
73331;SDS011;61560;33.718;73.040;2023-03-16T01:34:29;728.65;;;246.68;;
73331;SDS011;61560;33.718;73.040;2023-03-16T01:37:20;731.38;;;247.93;;
73331;SDS011;61560;33.718;73.040;2023-03-16T01:39:56;741.05;;;250.55;;
73331;SDS011;61560;33.718;73.040;2023-03-16T01:42:24;740.40;;;249.38;;
73331;SDS011;61560;33.718;73.040;2023-03-16T01:44:52;739.00;;;249.05;;
73331;SDS011;61560;33.718;73.040;2023-03-16T01:47:23;738.78;;;250.35;;
73331;SDS011;61560;33.718;73.040;2023-03-16T01:49:50;735.35;;;248.40;;
73331;SDS011;61560;33.718;73.040;2023-03-16T01:52:24;740.53;;;249.93;;
73331;SDS011;61560;33.718;73.040;2023-03-16T01:55:03;741.95;;;250.50;;
73331;SDS011;61560;33.718;73.040;2023-03-16T01:57:41;745.75;;;251.52;;
73331;SDS011;61560;33.718;73.040;2023-03-16T02:00:13;749.35;;;253.68;;
73331;SDS011;61560;33.718;73.040;2023-03-16T02:03:14;733.50;;;246.38;;
73331;SDS011;61560;33.718;73.040;2023-03-16T02:05:58;731.70;;;245.18;;
73331;SDS011;61560;33.718;73.040;2023-03-16T02:08:32;731.80;;;246.50;;
73331;SDS011;61560;33.718;73.040;2023-03-16T02:10:58;731.40;;;246.38;;
73331;SDS011;61560;33.718;73.040;2023-03-16T02:13:38;732.30;;;246.27;;
73331;SDS011;61560;33.718;73.040;2023-03-16T02:16:06;728.40;;;244.88;;
73331;SDS011;61560;33.718;73.040;2023-03-16T02:18:33;734.55;;;246.48;;
73331;SDS011;61560;33.718;73.040;2023-03-16T02:23:36;730.20;;;244.85;;
73331;SDS011;61560;33.718;73.040;2023-03-16T02:31:22;725.13;;;244.43;;
73331;SDS011;61560;33.718;73.040;2023-03-16T02:33:49;723.22;;;242.43;;
73331;SDS011;61560;33.718;73.040;2023-03-16T02:36:19;721.50;;;242.38;;
73331;SDS011;61560;33.718;73.040;2023-03-16T02:38:46;716.28;;;241.02;;
73331;SDS011;61560;33.718;73.040;2023-03-16T02:41:38;724.63;;;241.95;;
73331;SDS011;61560;33.718;73.040;2023-03-16T02:44:17;721.20;;;242.13;;
73331;SDS011;61560;33.718;73.040;2023-03-16T02:46:46;722.97;;;242.07;;
73331;SDS011;61560;33.718;73.040;2023-03-16T02:49:18;727.42;;;242.80;;
73331;SDS011;61560;33.718;73.040;2023-03-16T02:51:52;723.72;;;242.65;;
73331;SDS011;61560;33.718;73.040;2023-03-16T02:54:19;722.42;;;242.43;;
73331;SDS011;61560;33.718;73.040;2023-03-16T02:56:46;719.40;;;241.52;;
73331;SDS011;61560;33.718;73.040;2023-03-16T02:59:12;721.30;;;242.25;;
73331;SDS011;61560;33.718;73.040;2023-03-16T03:01:40;721.38;;;242.93;;
73331;SDS011;61560;33.718;73.040;2023-03-16T03:04:08;723.90;;;241.95;;
73331;SDS011;61560;33.718;73.040;2023-03-16T03:06:36;724.25;;;244.60;;
73331;SDS011;61560;33.718;73.040;2023-03-16T03:09:03;730.67;;;246.00;;
73331;SDS011;61560;33.718;73.040;2023-03-16T03:11:36;728.20;;;246.23;;
73331;SDS011;61560;33.718;73.040;2023-03-16T03:14:04;731.28;;;245.35;;
73331;SDS011;61560;33.718;73.040;2023-03-16T03:16:31;727.85;;;245.95;;
73331;SDS011;61560;33.718;73.040;2023-03-16T03:18:58;728.78;;;245.23;;
73331;SDS011;61560;33.718;73.040;2023-03-16T03:21:27;725.38;;;244.18;;
73331;SDS011;61560;33.718;73.040;2023-03-16T03:23:53;726.42;;;243.52;;
73331;SDS011;61560;33.718;73.040;2023-03-16T03:26:21;732.08;;;245.25;;
73331;SDS011;61560;33.718;73.040;2023-03-16T03:28:49;732.25;;;247.18;;
73331;SDS011;61560;33.718;73.040;2023-03-16T03:31:19;731.72;;;246.23;;
73331;SDS011;61560;33.718;73.040;2023-03-16T03:33:47;733.20;;;247.02;;
73331;SDS011;61560;33.718;73.040;2023-03-16T03:36:14;740.10;;;247.80;;
73331;SDS011;61560;33.718;73.040;2023-03-16T03:38:43;736.03;;;249.20;;
73331;SDS011;61560;33.718;73.040;2023-03-16T03:41:10;739.38;;;249.10;;
73331;SDS011;61560;33.718;73.040;2023-03-16T03:43:38;740.95;;;249.10;;
73331;SDS011;61560;33.718;73.040;2023-03-16T03:46:30;742.80;;;249.45;;
73331;SDS011;61560;33.718;73.040;2023-03-16T03:48:57;737.78;;;248.38;;
73331;SDS011;61560;33.718;73.040;2023-03-16T03:51:31;737.35;;;248.75;;
73331;SDS011;61560;33.718;73.040;2023-03-16T03:54:12;742.10;;;249.05;;
73331;SDS011;61560;33.718;73.040;2023-03-16T03:56:55;742.20;;;249.48;;
73331;SDS011;61560;33.718;73.040;2023-03-16T03:59:24;736.65;;;248.27;;
73331;SDS011;61560;33.718;73.040;2023-03-16T04:02:09;734.25;;;248.95;;
73331;SDS011;61560;33.718;73.040;2023-03-16T04:04:47;735.97;;;249.52;;
73331;SDS011;61560;33.718;73.040;2023-03-16T04:07:15;739.58;;;247.20;;
73331;SDS011;61560;33.718;73.040;2023-03-16T04:09:43;726.20;;;245.20;;
73331;SDS011;61560;33.718;73.040;2023-03-16T04:12:24;731.83;;;245.35;;
73331;SDS011;61560;33.718;73.040;2023-03-16T04:14:51;729.10;;;244.68;;
73331;SDS011;61560;33.718;73.040;2023-03-16T04:17:18;725.10;;;245.25;;
73331;SDS011;61560;33.718;73.040;2023-03-16T04:19:48;724.33;;;244.90;;
73331;SDS011;61560;33.718;73.040;2023-03-16T04:22:16;726.58;;;245.88;;
73331;SDS011;61560;33.718;73.040;2023-03-16T04:24:44;725.15;;;245.85;;
73331;SDS011;61560;33.718;73.040;2023-03-16T04:27:12;728.90;;;246.18;;
73331;SDS011;61560;33.718;73.040;2023-03-16T04:29:39;726.47;;;245.70;;
73331;SDS011;61560;33.718;73.040;2023-03-16T04:32:06;728.25;;;244.32;;
73331;SDS011;61560;33.718;73.040;2023-03-16T04:34:34;724.65;;;245.38;;
73331;SDS011;61560;33.718;73.040;2023-03-16T04:37:03;728.03;;;246.10;;
73331;SDS011;61560;33.718;73.040;2023-03-16T04:39:36;727.25;;;246.43;;
73331;SDS011;61560;33.718;73.040;2023-03-16T04:42:08;733.05;;;246.05;;
73331;SDS011;61560;33.718;73.040;2023-03-16T04:44:35;730.80;;;247.60;;
73331;SDS011;61560;33.718;73.040;2023-03-16T04:47:10;732.97;;;248.43;;
73331;SDS011;61560;33.718;73.040;2023-03-16T04:49:39;734.50;;;249.10;;
73331;SDS011;61560;33.718;73.040;2023-03-16T04:52:09;738.08;;;250.02;;
73331;SDS011;61560;33.718;73.040;2023-03-16T04:54:35;744.75;;;251.38;;
73331;SDS011;61560;33.718;73.040;2023-03-16T04:57:02;744.00;;;252.05;;
73331;SDS011;61560;33.718;73.040;2023-03-16T04:59:36;746.35;;;250.35;;
73331;SDS011;61560;33.718;73.040;2023-03-16T05:02:25;744.78;;;253.65;;
73331;SDS011;61560;33.718;73.040;2023-03-16T05:04:54;752.47;;;253.32;;
73331;SDS011;61560;33.718;73.040;2023-03-16T05:07:20;751.38;;;254.23;;
73331;SDS011;61560;33.718;73.040;2023-03-16T05:09:51;756.72;;;258.35;;
73331;SDS011;61560;33.718;73.040;2023-03-16T05:12:19;748.17;;;253.95;;
73331;SDS011;61560;33.718;73.040;2023-03-16T05:14:50;756.67;;;254.88;;
73331;SDS011;61560;33.718;73.040;2023-03-16T05:17:34;756.40;;;256.38;;
73331;SDS011;61560;33.718;73.040;2023-03-16T05:20:01;759.30;;;256.20;;
73331;SDS011;61560;33.718;73.040;2023-03-16T05:25:13;751.42;;;258.00;;
73331;SDS011;61560;33.718;73.040;2023-03-16T05:27:45;754.17;;;256.52;;
73331;SDS011;61560;33.718;73.040;2023-03-16T05:30:19;751.00;;;255.20;;
73331;SDS011;61560;33.718;73.040;2023-03-16T05:32:49;747.55;;;254.38;;
73331;SDS011;61560;33.718;73.040;2023-03-16T05:35:16;749.00;;;256.45;;
73331;SDS011;61560;33.718;73.040;2023-03-16T05:37:46;753.65;;;256.08;;
73331;SDS011;61560;33.718;73.040;2023-03-16T05:40:17;759.72;;;258.23;;
73331;SDS011;61560;33.718;73.040;2023-03-16T05:42:54;755.92;;;257.85;;
73331;SDS011;61560;33.718;73.040;2023-03-16T05:45:23;763.55;;;257.75;;
73331;SDS011;61560;33.718;73.040;2023-03-16T05:48:06;757.85;;;258.15;;
73331;SDS011;61560;33.718;73.040;2023-03-16T05:50:40;762.47;;;259.95;;
73331;SDS011;61560;33.718;73.040;2023-03-16T05:53:07;759.78;;;257.02;;
73331;SDS011;61560;33.718;73.040;2023-03-16T05:55:36;761.67;;;257.20;;
73331;SDS011;61560;33.718;73.040;2023-03-16T05:58:05;759.08;;;258.35;;
73331;SDS011;61560;33.718;73.040;2023-03-16T06:00:34;758.45;;;258.27;;
73331;SDS011;61560;33.718;73.040;2023-03-16T06:03:15;761.00;;;257.00;;
73331;SDS011;61560;33.718;73.040;2023-03-16T06:05:45;753.50;;;256.63;;
73331;SDS011;61560;33.718;73.040;2023-03-16T06:08:14;755.15;;;256.15;;
73331;SDS011;61560;33.718;73.040;2023-03-16T06:11:05;756.15;;;255.27;;
73331;SDS011;61560;33.718;73.040;2023-03-16T06:13:37;751.60;;;252.83;;
73331;SDS011;61560;33.718;73.040;2023-03-16T06:16:05;745.25;;;254.68;;
73331;SDS011;61560;33.718;73.040;2023-03-16T06:18:34;744.05;;;254.43;;
73331;SDS011;61560;33.718;73.040;2023-03-16T06:21:00;750.80;;;253.80;;
73331;SDS011;61560;33.718;73.040;2023-03-16T06:23:30;752.25;;;253.38;;
73331;SDS011;61560;33.718;73.040;2023-03-16T06:25:57;742.33;;;252.75;;
73331;SDS011;61560;33.718;73.040;2023-03-16T06:28:27;744.92;;;253.38;;
73331;SDS011;61560;33.718;73.040;2023-03-16T06:30:55;744.63;;;254.65;;
73331;SDS011;61560;33.718;73.040;2023-03-16T06:33:27;746.42;;;254.60;;
73331;SDS011;61560;33.718;73.040;2023-03-16T06:35:55;740.10;;;252.93;;
73331;SDS011;61560;33.718;73.040;2023-03-16T06:38:41;741.30;;;252.65;;
73331;SDS011;61560;33.718;73.040;2023-03-16T06:41:22;751.60;;;254.07;;
73331;SDS011;61560;33.718;73.040;2023-03-16T06:43:48;747.00;;;254.10;;
73331;SDS011;61560;33.718;73.040;2023-03-16T06:46:15;746.95;;;255.38;;
73331;SDS011;61560;33.718;73.040;2023-03-16T06:48:43;747.78;;;254.50;;
73331;SDS011;61560;33.718;73.040;2023-03-16T06:51:11;741.17;;;253.10;;
73331;SDS011;61560;33.718;73.040;2023-03-16T06:54:02;744.78;;;251.43;;
73331;SDS011;61560;33.718;73.040;2023-03-16T06:56:32;745.35;;;251.43;;
73331;SDS011;61560;33.718;73.040;2023-03-16T06:58:58;745.70;;;253.30;;
73331;SDS011;61560;33.718;73.040;2023-03-16T07:01:26;742.08;;;252.80;;
73331;SDS011;61560;33.718;73.040;2023-03-16T07:03:52;743.33;;;253.10;;
73331;SDS011;61560;33.718;73.040;2023-03-16T07:06:24;752.43;;;253.40;;
73331;SDS011;61560;33.718;73.040;2023-03-16T07:08:51;745.95;;;253.00;;
73331;SDS011;61560;33.718;73.040;2023-03-16T07:11:18;744.80;;;250.68;;
73331;SDS011;61560;33.718;73.040;2023-03-16T07:13:48;744.90;;;252.88;;
73331;SDS011;61560;33.718;73.040;2023-03-16T07:16:16;743.33;;;251.73;;
73331;SDS011;61560;33.718;73.040;2023-03-16T07:18:43;750.85;;;252.25;;
73331;SDS011;61560;33.718;73.040;2023-03-16T07:21:13;747.15;;;253.65;;
73331;SDS011;61560;33.718;73.040;2023-03-16T07:23:40;744.65;;;252.82;;
73331;SDS011;61560;33.718;73.040;2023-03-16T07:26:08;744.03;;;251.98;;
73331;SDS011;61560;33.718;73.040;2023-03-16T07:28:46;752.03;;;252.55;;
73331;SDS011;61560;33.718;73.040;2023-03-16T07:31:14;752.00;;;253.10;;
73331;SDS011;61560;33.718;73.040;2023-03-16T07:33:41;749.08;;;252.90;;
73331;SDS011;61560;33.718;73.040;2023-03-16T07:36:12;753.15;;;252.70;;
73331;SDS011;61560;33.718;73.040;2023-03-16T07:38:45;753.88;;;253.43;;
73331;SDS011;61560;33.718;73.040;2023-03-16T07:41:12;753.35;;;254.57;;
73331;SDS011;61560;33.718;73.040;2023-03-16T07:43:44;753.92;;;254.23;;
73331;SDS011;61560;33.718;73.040;2023-03-16T07:46:13;750.30;;;254.38;;
73331;SDS011;61560;33.718;73.040;2023-03-16T07:48:40;750.10;;;253.63;;
73331;SDS011;61560;33.718;73.040;2023-03-16T07:51:10;744.03;;;252.15;;
73331;SDS011;61560;33.718;73.040;2023-03-16T07:53:40;751.05;;;252.43;;
73331;SDS011;61560;33.718;73.040;2023-03-16T07:56:15;745.40;;;251.63;;
73331;SDS011;61560;33.718;73.040;2023-03-16T07:58:45;742.50;;;250.93;;
73331;SDS011;61560;33.718;73.040;2023-03-16T08:01:12;742.90;;;251.20;;
73331;SDS011;61560;33.718;73.040;2023-03-16T08:03:39;743.28;;;251.32;;
73331;SDS011;61560;33.718;73.040;2023-03-16T08:06:05;741.33;;;250.23;;
73331;SDS011;61560;33.718;73.040;2023-03-16T08:08:35;737.38;;;249.23;;
73331;SDS011;61560;33.718;73.040;2023-03-16T08:11:02;736.55;;;249.88;;
73331;SDS011;61560;33.718;73.040;2023-03-16T08:13:40;740.47;;;250.05;;
73331;SDS011;61560;33.718;73.040;2023-03-16T08:16:08;740.42;;;249.73;;
73331;SDS011;61560;33.718;73.040;2023-03-16T08:18:38;744.28;;;249.43;;
73331;SDS011;61560;33.718;73.040;2023-03-16T08:21:05;736.22;;;249.65;;
73331;SDS011;61560;33.718;73.040;2023-03-16T08:23:33;741.33;;;250.77;;
73331;SDS011;61560;33.718;73.040;2023-03-16T08:26:01;743.10;;;250.55;;
73331;SDS011;61560;33.718;73.040;2023-03-16T08:28:28;734.97;;;248.70;;
73331;SDS011;61560;33.718;73.040;2023-03-16T08:30:59;742.85;;;251.25;;
73331;SDS011;61560;33.718;73.040;2023-03-16T08:33:37;739.28;;;250.25;;
73331;SDS011;61560;33.718;73.040;2023-03-16T08:36:06;739.60;;;249.43;;
73331;SDS011;61560;33.718;73.040;2023-03-16T08:38:34;738.10;;;250.55;;
73331;SDS011;61560;33.718;73.040;2023-03-16T08:41:06;742.05;;;251.05;;
73331;SDS011;61560;33.718;73.040;2023-03-16T08:43:33;741.40;;;251.13;;
73331;SDS011;61560;33.718;73.040;2023-03-16T08:46:00;743.53;;;250.00;;
73331;SDS011;61560;33.718;73.040;2023-03-16T08:48:38;744.90;;;252.52;;
73331;SDS011;61560;33.718;73.040;2023-03-16T08:51:07;742.42;;;252.40;;
73331;SDS011;61560;33.718;73.040;2023-03-16T08:53:35;745.60;;;251.38;;
73331;SDS011;61560;33.718;73.040;2023-03-16T08:56:02;740.53;;;251.90;;
73331;SDS011;61560;33.718;73.040;2023-03-16T08:58:31;738.90;;;250.38;;
73331;SDS011;61560;33.718;73.040;2023-03-16T09:00:59;741.45;;;250.13;;
73331;SDS011;61560;33.718;73.040;2023-03-16T09:03:28;734.97;;;249.65;;
73331;SDS011;61560;33.718;73.040;2023-03-16T09:06:04;736.45;;;249.02;;
73331;SDS011;61560;33.718;73.040;2023-03-16T09:08:32;741.28;;;250.23;;
73331;SDS011;61560;33.718;73.040;2023-03-16T09:11:03;744.70;;;251.48;;
73331;SDS011;61560;33.718;73.040;2023-03-16T09:13:37;745.08;;;253.27;;
73331;SDS011;61560;33.718;73.040;2023-03-16T09:16:07;747.65;;;253.73;;
73331;SDS011;61560;33.718;73.040;2023-03-16T09:18:35;742.88;;;253.02;;
73331;SDS011;61560;33.718;73.040;2023-03-16T09:21:02;749.10;;;253.30;;
73331;SDS011;61560;33.718;73.040;2023-03-16T09:23:31;736.05;;;250.57;;
73331;SDS011;61560;33.718;73.040;2023-03-16T09:26:03;740.90;;;251.82;;
73331;SDS011;61560;33.718;73.040;2023-03-16T09:28:32;738.00;;;251.43;;
73331;SDS011;61560;33.718;73.040;2023-03-16T09:31:01;742.05;;;250.98;;
73331;SDS011;61560;33.718;73.040;2023-03-16T09:33:28;744.60;;;253.82;;
73331;SDS011;61560;33.718;73.040;2023-03-16T09:35:58;738.92;;;251.63;;
73331;SDS011;61560;33.718;73.040;2023-03-16T09:38:25;739.08;;;252.82;;
73331;SDS011;61560;33.718;73.040;2023-03-16T09:41:00;741.97;;;253.95;;
73331;SDS011;61560;33.718;73.040;2023-03-16T09:48:54;733.95;;;251.00;;
73331;SDS011;61560;33.718;73.040;2023-03-16T09:51:28;733.70;;;251.35;;
73331;SDS011;61560;33.718;73.040;2023-03-16T10:00:13;739.55;;;252.77;;
73331;SDS011;61560;33.718;73.040;2023-03-16T10:05:30;739.40;;;250.50;;
73331;SDS011;61560;33.718;73.040;2023-03-16T10:17:00;736.40;;;249.68;;
73331;SDS011;61560;33.718;73.040;2023-03-16T10:19:16;735.30;;;249.83;;
73331;SDS011;61560;33.718;73.040;2023-03-16T10:21:53;734.78;;;250.95;;
73331;SDS011;61560;33.718;73.040;2023-03-16T10:26:58;730.40;;;248.15;;
73331;SDS011;61560;33.718;73.040;2023-03-16T10:29:27;742.42;;;250.75;;
73331;SDS011;61560;33.718;73.040;2023-03-16T10:32:07;741.78;;;249.10;;
73331;SDS011;61560;33.718;73.040;2023-03-16T10:34:42;747.95;;;252.65;;
73331;SDS011;61560;33.718;73.040;2023-03-16T10:37:14;746.55;;;252.70;;
73331;SDS011;61560;33.718;73.040;2023-03-16T10:39:40;732.25;;;247.23;;
73331;SDS011;61560;33.718;73.040;2023-03-16T10:42:15;729.38;;;244.65;;
73331;SDS011;61560;33.718;73.040;2023-03-16T10:44:44;728.28;;;246.88;;
73331;SDS011;61560;33.718;73.040;2023-03-16T10:47:15;734.25;;;246.98;;
73331;SDS011;61560;33.718;73.040;2023-03-16T10:49:49;734.60;;;249.15;;
73331;SDS011;61560;33.718;73.040;2023-03-16T10:55:11;730.95;;;247.20;;
73331;SDS011;61560;33.718;73.040;2023-03-16T10:57:42;732.60;;;247.55;;
73331;SDS011;61560;33.718;73.040;2023-03-16T11:02:46;734.03;;;246.05;;
73331;SDS011;61560;33.718;73.040;2023-03-16T11:05:18;730.90;;;244.90;;
73331;SDS011;61560;33.718;73.040;2023-03-16T11:10:54;736.38;;;247.98;;
73331;SDS011;61560;33.718;73.040;2023-03-16T11:13:34;741.08;;;247.73;;
73331;SDS011;61560;33.718;73.040;2023-03-16T11:16:22;740.47;;;247.57;;
73331;SDS011;61560;33.718;73.040;2023-03-16T11:24:36;729.25;;;243.73;;
73331;SDS011;61560;33.718;73.040;2023-03-16T11:30:41;724.35;;;243.30;;
73331;SDS011;61560;33.718;73.040;2023-03-16T11:33:30;723.10;;;242.15;;
73331;SDS011;61560;33.718;73.040;2023-03-16T11:38:49;718.97;;;241.85;;
73331;SDS011;61560;33.718;73.040;2023-03-16T11:54:53;734.78;;;247.93;;
73331;SDS011;61560;33.718;73.040;2023-03-16T12:15:59;730.15;;;243.13;;
73331;SDS011;61560;33.718;73.040;2023-03-16T12:18:41;730.08;;;244.65;;
73331;SDS011;61560;33.718;73.040;2023-03-16T12:21:14;727.55;;;243.00;;
73331;SDS011;61560;33.718;73.040;2023-03-16T12:23:50;723.28;;;242.30;;
73331;SDS011;61560;33.718;73.040;2023-03-16T12:26:18;723.75;;;241.40;;
73331;SDS011;61560;33.718;73.040;2023-03-16T12:28:48;718.40;;;240.80;;
73331;SDS011;61560;33.718;73.040;2023-03-16T12:31:23;717.90;;;240.30;;
73331;SDS011;61560;33.718;73.040;2023-03-16T12:36:59;728.15;;;244.20;;
73331;SDS011;61560;33.718;73.040;2023-03-16T12:52:06;731.97;;;247.40;;
73331;SDS011;61560;33.718;73.040;2023-03-16T12:54:34;730.55;;;245.60;;
73331;SDS011;61560;33.718;73.040;2023-03-16T12:57:04;729.85;;;244.52;;
73331;SDS011;61560;33.718;73.040;2023-03-16T12:59:43;724.35;;;244.13;;
73331;SDS011;61560;33.718;73.040;2023-03-16T13:02:33;723.83;;;244.45;;
73331;SDS011;61560;33.718;73.040;2023-03-16T13:05:06;725.05;;;245.05;;
73331;SDS011;61560;33.718;73.040;2023-03-16T13:07:48;726.80;;;245.60;;
73331;SDS011;61560;33.718;73.040;2023-03-16T13:10:17;726.25;;;245.45;;
73331;SDS011;61560;33.718;73.040;2023-03-16T13:12:45;734.97;;;247.02;;
73331;SDS011;61560;33.718;73.040;2023-03-16T13:17:48;730.58;;;246.45;;
73331;SDS011;61560;33.718;73.040;2023-03-16T13:20:30;731.92;;;245.90;;
73331;SDS011;61560;33.718;73.040;2023-03-16T13:23:22;725.95;;;246.35;;
73331;SDS011;61560;33.718;73.040;2023-03-16T13:28:44;735.25;;;249.43;;
73331;SDS011;61560;33.718;73.040;2023-03-16T13:31:24;733.47;;;247.07;;
73331;SDS011;61560;33.718;73.040;2023-03-16T13:33:58;734.83;;;248.90;;
73331;SDS011;61560;33.718;73.040;2023-03-16T13:36:26;728.28;;;246.10;;
73331;SDS011;61560;33.718;73.040;2023-03-16T13:38:55;727.03;;;246.45;;
73331;SDS011;61560;33.718;73.040;2023-03-16T13:41:30;731.75;;;248.93;;
73331;SDS011;61560;33.718;73.040;2023-03-16T13:43:56;730.35;;;248.65;;
73331;SDS011;61560;33.718;73.040;2023-03-16T13:46:26;732.45;;;250.40;;
73331;SDS011;61560;33.718;73.040;2023-03-16T13:48:58;734.58;;;249.40;;
73331;SDS011;61560;33.718;73.040;2023-03-16T13:51:27;735.17;;;250.05;;
73331;SDS011;61560;33.718;73.040;2023-03-16T13:54:02;733.63;;;249.15;;
73331;SDS011;61560;33.718;73.040;2023-03-16T13:56:43;733.80;;;249.27;;
73331;SDS011;61560;33.718;73.040;2023-03-16T13:59:10;733.45;;;248.57;;
73331;SDS011;61560;33.718;73.040;2023-03-16T14:01:37;736.95;;;251.18;;
73331;SDS011;61560;33.718;73.040;2023-03-16T14:04:10;739.85;;;252.25;;
73331;SDS011;61560;33.718;73.040;2023-03-16T14:06:53;736.17;;;249.43;;
73331;SDS011;61560;33.718;73.040;2023-03-16T14:09:27;733.95;;;249.30;;
73331;SDS011;61560;33.718;73.040;2023-03-16T14:11:56;732.88;;;250.35;;
73331;SDS011;61560;33.718;73.040;2023-03-16T14:14:29;737.50;;;251.23;;
73331;SDS011;61560;33.718;73.040;2023-03-16T14:17:02;724.58;;;247.20;;
73331;SDS011;61560;33.718;73.040;2023-03-16T14:19:41;727.30;;;248.57;;
73331;SDS011;61560;33.718;73.040;2023-03-16T14:22:17;730.88;;;248.10;;
73331;SDS011;61560;33.718;73.040;2023-03-16T14:24:52;734.28;;;251.90;;
73331;SDS011;61560;33.718;73.040;2023-03-16T14:27:25;732.05;;;249.07;;
73331;SDS011;61560;33.718;73.040;2023-03-16T14:30:02;727.08;;;249.15;;
73331;SDS011;61560;33.718;73.040;2023-03-16T14:32:55;728.83;;;246.85;;
73331;SDS011;61560;33.718;73.040;2023-03-16T14:35:40;731.58;;;250.00;;
73331;SDS011;61560;33.718;73.040;2023-03-16T14:40:56;739.75;;;251.70;;
73331;SDS011;61560;33.718;73.040;2023-03-16T14:43:29;736.35;;;251.75;;
73331;SDS011;61560;33.718;73.040;2023-03-16T14:45:58;743.85;;;252.35;;
73331;SDS011;61560;33.718;73.040;2023-03-16T14:48:26;737.35;;;251.25;;
73331;SDS011;61560;33.718;73.040;2023-03-16T14:50:53;730.95;;;248.45;;
73331;SDS011;61560;33.718;73.040;2023-03-16T14:53:24;730.38;;;248.18;;
73331;SDS011;61560;33.718;73.040;2023-03-16T14:55:56;731.00;;;247.90;;
73331;SDS011;61560;33.718;73.040;2023-03-16T14:58:24;731.17;;;248.43;;
73331;SDS011;61560;33.718;73.040;2023-03-16T15:00:51;729.45;;;247.40;;
73331;SDS011;61560;33.718;73.040;2023-03-16T15:03:21;732.10;;;246.77;;
73331;SDS011;61560;33.718;73.040;2023-03-16T15:05:54;738.75;;;250.05;;
73331;SDS011;61560;33.718;73.040;2023-03-16T15:08:21;741.00;;;251.07;;
73331;SDS011;61560;33.718;73.040;2023-03-16T15:10:53;741.40;;;251.88;;
73331;SDS011;61560;33.718;73.040;2023-03-16T15:13:26;737.53;;;248.90;;
73331;SDS011;61560;33.718;73.040;2023-03-16T15:16:10;746.72;;;252.00;;
73331;SDS011;61560;33.718;73.040;2023-03-16T15:18:39;741.97;;;250.75;;
73331;SDS011;61560;33.718;73.040;2023-03-16T15:21:25;735.53;;;248.57;;
73331;SDS011;61560;33.718;73.040;2023-03-16T15:23:57;728.65;;;246.27;;
73331;SDS011;61560;33.718;73.040;2023-03-16T15:26:24;727.13;;;247.15;;
73331;SDS011;61560;33.718;73.040;2023-03-16T15:28:53;728.03;;;246.65;;
73331;SDS011;61560;33.718;73.040;2023-03-16T15:31:21;724.25;;;246.23;;
73331;SDS011;61560;33.718;73.040;2023-03-16T15:33:48;726.42;;;245.13;;
73331;SDS011;61560;33.718;73.040;2023-03-16T15:36:16;727.20;;;245.13;;
73331;SDS011;61560;33.718;73.040;2023-03-16T15:38:48;723.22;;;245.13;;
73331;SDS011;61560;33.718;73.040;2023-03-16T15:41:16;723.70;;;244.80;;
73331;SDS011;61560;33.718;73.040;2023-03-16T15:43:43;722.60;;;244.98;;
73331;SDS011;61560;33.718;73.040;2023-03-16T15:46:10;719.92;;;242.75;;
73331;SDS011;61560;33.718;73.040;2023-03-16T15:48:37;711.58;;;240.07;;
73331;SDS011;61560;33.718;73.040;2023-03-16T15:51:06;711.25;;;240.82;;
73331;SDS011;61560;33.718;73.040;2023-03-16T15:53:40;717.20;;;241.93;;
73331;SDS011;61560;33.718;73.040;2023-03-16T15:56:12;716.47;;;244.25;;
73331;SDS011;61560;33.718;73.040;2023-03-16T15:58:44;726.93;;;245.07;;
73331;SDS011;61560;33.718;73.040;2023-03-16T16:01:24;723.90;;;245.32;;